sensor_id;sensor_type;location;lat;lon;timestamp;P1;durP1;ratioP1;P2;durP2;ratioP2
7289;SDS011;63176;52.678;13.250;2022-09-09T00:00:40;12.07;;;5.27;;
7289;SDS011;63176;52.678;13.250;2022-09-09T00:03:16;8.10;;;6.30;;
7289;SDS011;63176;52.678;13.250;2022-09-09T00:05:53;8.70;;;5.53;;
7289;SDS011;63176;52.678;13.250;2022-09-09T00:08:42;6.93;;;5.17;;
7289;SDS011;63176;52.678;13.250;2022-09-09T00:11:12;10.00;;;6.20;;
7289;SDS011;63176;52.678;13.250;2022-09-09T00:13:46;5.80;;;5.07;;
7289;SDS011;63176;52.678;13.250;2022-09-09T00:16:17;7.97;;;4.70;;
7289;SDS011;63176;52.678;13.250;2022-09-09T00:21:55;8.33;;;5.80;;
7289;SDS011;63176;52.678;13.250;2022-09-09T00:30:12;7.73;;;5.40;;
7289;SDS011;63176;52.678;13.250;2022-09-09T00:32:39;9.47;;;4.70;;
7289;SDS011;63176;52.678;13.250;2022-09-09T00:35:14;7.30;;;4.80;;
7289;SDS011;63176;52.678;13.250;2022-09-09T00:37:42;7.97;;;5.17;;
7289;SDS011;63176;52.678;13.250;2022-09-09T00:40:31;8.70;;;5.37;;
7289;SDS011;63176;52.678;13.250;2022-09-09T00:51:19;5.67;;;4.50;;
7289;SDS011;63176;52.678;13.250;2022-09-09T01:02:27;6.60;;;4.27;;
7289;SDS011;63176;52.678;13.250;2022-09-09T01:04:53;4.97;;;4.20;;
7289;SDS011;63176;52.678;13.250;2022-09-09T01:07:20;5.63;;;4.40;;
7289;SDS011;63176;52.678;13.250;2022-09-09T01:09:54;11.83;;;4.20;;
7289;SDS011;63176;52.678;13.250;2022-09-09T01:12:43;6.33;;;4.80;;
7289;SDS011;63176;52.678;13.250;2022-09-09T01:15:15;4.97;;;3.97;;
7289;SDS011;63176;52.678;13.250;2022-09-09T01:17:57;5.00;;;4.03;;
7289;SDS011;63176;52.678;13.250;2022-09-09T01:21:07;6.27;;;4.27;;
7289;SDS011;63176;52.678;13.250;2022-09-09T01:28:55;4.33;;;3.83;;
7289;SDS011;63176;52.678;13.250;2022-09-09T01:31:40;4.20;;;3.80;;
7289;SDS011;63176;52.678;13.250;2022-09-09T01:34:09;5.07;;;4.20;;
7289;SDS011;63176;52.678;13.250;2022-09-09T01:39:33;4.03;;;3.63;;
7289;SDS011;63176;52.678;13.250;2022-09-09T01:42:00;5.47;;;3.70;;
7289;SDS011;63176;52.678;13.250;2022-09-09T01:44:28;5.63;;;4.30;;
7289;SDS011;63176;52.678;13.250;2022-09-09T01:46:54;4.60;;;3.87;;
7289;SDS011;63176;52.678;13.250;2022-09-09T01:49:20;4.83;;;4.00;;
7289;SDS011;63176;52.678;13.250;2022-09-09T01:51:48;5.20;;;4.23;;
7289;SDS011;63176;52.678;13.250;2022-09-09T01:54:17;5.40;;;4.10;;
7289;SDS011;63176;52.678;13.250;2022-09-09T02:04:44;9.93;;;4.77;;
7289;SDS011;63176;52.678;13.250;2022-09-09T02:09:45;5.73;;;4.30;;
7289;SDS011;63176;52.678;13.250;2022-09-09T02:12:14;6.50;;;4.33;;
7289;SDS011;63176;52.678;13.250;2022-09-09T02:14:48;4.90;;;4.40;;
7289;SDS011;63176;52.678;13.250;2022-09-09T02:17:23;4.87;;;3.70;;
7289;SDS011;63176;52.678;13.250;2022-09-09T02:19:59;7.50;;;4.30;;
7289;SDS011;63176;52.678;13.250;2022-09-09T02:22:37;6.30;;;4.60;;
7289;SDS011;63176;52.678;13.250;2022-09-09T02:25:05;5.00;;;4.50;;
7289;SDS011;63176;52.678;13.250;2022-09-09T02:27:34;7.20;;;4.20;;
7289;SDS011;63176;52.678;13.250;2022-09-09T02:30:00;6.07;;;4.37;;
7289;SDS011;63176;52.678;13.250;2022-09-09T02:32:28;4.40;;;3.43;;
7289;SDS011;63176;52.678;13.250;2022-09-09T02:34:57;8.10;;;5.17;;
7289;SDS011;63176;52.678;13.250;2022-09-09T02:37:29;4.77;;;3.80;;
7289;SDS011;63176;52.678;13.250;2022-09-09T02:40:00;6.30;;;3.50;;
7289;SDS011;63176;52.678;13.250;2022-09-09T02:42:27;5.30;;;4.70;;
7289;SDS011;63176;52.678;13.250;2022-09-09T02:44:53;4.20;;;3.57;;
7289;SDS011;63176;52.678;13.250;2022-09-09T02:58:06;6.80;;;4.00;;
7289;SDS011;63176;52.678;13.250;2022-09-09T03:00:36;7.20;;;4.60;;
7289;SDS011;63176;52.678;13.250;2022-09-09T03:03:06;6.60;;;4.40;;
7289;SDS011;63176;52.678;13.250;2022-09-09T03:05:33;4.77;;;3.90;;
7289;SDS011;63176;52.678;13.250;2022-09-09T03:07:59;4.63;;;4.00;;
7289;SDS011;63176;52.678;13.250;2022-09-09T03:10:25;5.00;;;4.10;;
7289;SDS011;63176;52.678;13.250;2022-09-09T03:12:50;6.27;;;4.30;;
7289;SDS011;63176;52.678;13.250;2022-09-09T03:15:16;6.37;;;4.40;;
7289;SDS011;63176;52.678;13.250;2022-09-09T03:17:42;5.30;;;4.30;;
7289;SDS011;63176;52.678;13.250;2022-09-09T03:20:07;5.20;;;3.97;;
7289;SDS011;63176;52.678;13.250;2022-09-09T03:22:34;5.15;;;4.32;;
7289;SDS011;63176;52.678;13.250;2022-09-09T03:25:00;10.13;;;4.45;;
7289;SDS011;63176;52.678;13.250;2022-09-09T03:27:27;4.83;;;4.33;;
7289;SDS011;63176;52.678;13.250;2022-09-09T03:29:53;5.80;;;3.90;;
7289;SDS011;63176;52.678;13.250;2022-09-09T03:32:19;6.40;;;4.67;;
7289;SDS011;63176;52.678;13.250;2022-09-09T03:34:47;7.50;;;4.23;;
7289;SDS011;63176;52.678;13.250;2022-09-09T03:37:14;7.63;;;4.83;;
7289;SDS011;63176;52.678;13.250;2022-09-09T03:39:41;9.60;;;4.20;;
7289;SDS011;63176;52.678;13.250;2022-09-09T03:42:06;6.27;;;4.93;;
7289;SDS011;63176;52.678;13.250;2022-09-09T03:44:32;6.93;;;4.27;;
7289;SDS011;63176;52.678;13.250;2022-09-09T03:46:58;8.73;;;5.30;;
7289;SDS011;63176;52.678;13.250;2022-09-09T03:49:25;11.20;;;5.17;;
7289;SDS011;63176;52.678;13.250;2022-09-09T03:51:53;4.87;;;4.37;;
7289;SDS011;63176;52.678;13.250;2022-09-09T03:54:21;6.47;;;4.40;;
7289;SDS011;63176;52.678;13.250;2022-09-09T03:56:47;6.80;;;4.77;;
7289;SDS011;63176;52.678;13.250;2022-09-09T03:59:13;7.53;;;3.97;;
7289;SDS011;63176;52.678;13.250;2022-09-09T04:01:39;5.23;;;4.27;;
7289;SDS011;63176;52.678;13.250;2022-09-09T04:04:05;5.90;;;5.07;;
7289;SDS011;63176;52.678;13.250;2022-09-09T04:06:30;4.10;;;3.70;;
7289;SDS011;63176;52.678;13.250;2022-09-09T04:08:56;4.73;;;4.23;;
7289;SDS011;63176;52.678;13.250;2022-09-09T04:11:22;6.57;;;4.73;;
7289;SDS011;63176;52.678;13.250;2022-09-09T04:13:47;4.90;;;4.40;;
7289;SDS011;63176;52.678;13.250;2022-09-09T04:16:14;5.17;;;4.40;;
7289;SDS011;63176;52.678;13.250;2022-09-09T04:18:40;5.57;;;4.30;;
7289;SDS011;63176;52.678;13.250;2022-09-09T04:21:06;7.50;;;5.37;;
7289;SDS011;63176;52.678;13.250;2022-09-09T04:23:33;6.30;;;4.23;;
7289;SDS011;63176;52.678;13.250;2022-09-09T04:26:00;6.80;;;4.30;;
7289;SDS011;63176;52.678;13.250;2022-09-09T04:28:28;4.73;;;4.23;;
7289;SDS011;63176;52.678;13.250;2022-09-09T04:30:55;5.27;;;4.53;;
7289;SDS011;63176;52.678;13.250;2022-09-09T04:33:23;5.27;;;4.10;;
7289;SDS011;63176;52.678;13.250;2022-09-09T04:35:51;7.70;;;4.50;;
7289;SDS011;63176;52.678;13.250;2022-09-09T04:38:18;4.07;;;3.67;;
7289;SDS011;63176;52.678;13.250;2022-09-09T04:40:47;5.30;;;4.30;;
7289;SDS011;63176;52.678;13.250;2022-09-09T04:43:14;4.93;;;4.10;;
7289;SDS011;63176;52.678;13.250;2022-09-09T04:45:41;11.20;;;4.97;;
7289;SDS011;63176;52.678;13.250;2022-09-09T04:48:07;7.07;;;4.37;;
7289;SDS011;63176;52.678;13.250;2022-09-09T04:50:34;6.37;;;4.57;;
7289;SDS011;63176;52.678;13.250;2022-09-09T04:53:01;6.03;;;4.40;;
7289;SDS011;63176;52.678;13.250;2022-09-09T04:55:30;5.87;;;4.30;;
7289;SDS011;63176;52.678;13.250;2022-09-09T04:57:56;7.03;;;5.10;;
7289;SDS011;63176;52.678;13.250;2022-09-09T05:00:23;6.20;;;4.40;;
7289;SDS011;63176;52.678;13.250;2022-09-09T05:02:49;5.63;;;4.57;;
7289;SDS011;63176;52.678;13.250;2022-09-09T05:05:16;6.60;;;4.43;;
7289;SDS011;63176;52.678;13.250;2022-09-09T05:07:41;5.00;;;4.50;;
7289;SDS011;63176;52.678;13.250;2022-09-09T05:10:08;5.60;;;4.57;;
7289;SDS011;63176;52.678;13.250;2022-09-09T05:12:35;6.87;;;4.93;;
7289;SDS011;63176;52.678;13.250;2022-09-09T05:15:01;4.77;;;4.27;;
7289;SDS011;63176;52.678;13.250;2022-09-09T05:17:27;6.10;;;3.57;;
7289;SDS011;63176;52.678;13.250;2022-09-09T05:19:52;5.23;;;3.90;;
7289;SDS011;63176;52.678;13.250;2022-09-09T05:22:21;7.30;;;4.37;;
7289;SDS011;63176;52.678;13.250;2022-09-09T05:24:48;5.83;;;4.53;;
7289;SDS011;63176;52.678;13.250;2022-09-09T05:27:15;5.10;;;3.97;;
7289;SDS011;63176;52.678;13.250;2022-09-09T05:29:45;6.20;;;4.43;;
7289;SDS011;63176;52.678;13.250;2022-09-09T05:32:11;5.93;;;4.57;;
7289;SDS011;63176;52.678;13.250;2022-09-09T05:34:36;7.03;;;4.63;;
7289;SDS011;63176;52.678;13.250;2022-09-09T05:37:05;5.78;;;4.13;;
7289;SDS011;63176;52.678;13.250;2022-09-09T05:39:32;9.00;;;4.47;;
7289;SDS011;63176;52.678;13.250;2022-09-09T05:41:58;5.57;;;4.37;;
7289;SDS011;63176;52.678;13.250;2022-09-09T05:44:24;7.87;;;4.57;;
7289;SDS011;63176;52.678;13.250;2022-09-09T05:46:52;6.70;;;4.07;;
7289;SDS011;63176;52.678;13.250;2022-09-09T05:49:19;6.70;;;4.53;;
7289;SDS011;63176;52.678;13.250;2022-09-09T05:51:45;8.57;;;4.67;;
7289;SDS011;63176;52.678;13.250;2022-09-09T05:54:11;6.97;;;4.87;;
7289;SDS011;63176;52.678;13.250;2022-09-09T05:56:39;5.43;;;4.37;;
7289;SDS011;63176;52.678;13.250;2022-09-09T05:59:05;6.20;;;4.20;;
7289;SDS011;63176;52.678;13.250;2022-09-09T06:01:32;11.30;;;4.90;;
7289;SDS011;63176;52.678;13.250;2022-09-09T06:03:59;6.87;;;4.63;;
7289;SDS011;63176;52.678;13.250;2022-09-09T06:06:26;9.83;;;4.50;;
7289;SDS011;63176;52.678;13.250;2022-09-09T06:08:55;6.13;;;4.80;;
7289;SDS011;63176;52.678;13.250;2022-09-09T06:11:29;7.43;;;4.80;;
7289;SDS011;63176;52.678;13.250;2022-09-09T06:13:59;5.20;;;4.20;;
7289;SDS011;63176;52.678;13.250;2022-09-09T06:16:25;9.87;;;5.90;;
7289;SDS011;63176;52.678;13.250;2022-09-09T06:18:53;16.80;;;4.30;;
7289;SDS011;63176;52.678;13.250;2022-09-09T06:23:46;9.50;;;5.23;;
7289;SDS011;63176;52.678;13.250;2022-09-09T06:26:19;5.70;;;4.43;;
7289;SDS011;63176;52.678;13.250;2022-09-09T06:28:46;8.37;;;4.80;;
7289;SDS011;63176;52.678;13.250;2022-09-09T06:31:15;4.67;;;4.27;;
7289;SDS011;63176;52.678;13.250;2022-09-09T06:33:42;9.93;;;4.33;;
7289;SDS011;63176;52.678;13.250;2022-09-09T06:36:15;4.60;;;3.77;;
7289;SDS011;63176;52.678;13.250;2022-09-09T06:38:43;4.20;;;3.30;;
7289;SDS011;63176;52.678;13.250;2022-09-09T06:41:09;6.60;;;4.20;;
7289;SDS011;63176;52.678;13.250;2022-09-09T06:43:37;6.37;;;3.63;;
7289;SDS011;63176;52.678;13.250;2022-09-09T06:46:11;4.00;;;3.57;;
7289;SDS011;63176;52.678;13.250;2022-09-09T06:48:44;4.97;;;3.53;;
7289;SDS011;63176;52.678;13.250;2022-09-09T06:51:11;8.17;;;4.30;;
7289;SDS011;63176;52.678;13.250;2022-09-09T06:53:46;3.80;;;3.37;;
7289;SDS011;63176;52.678;13.250;2022-09-09T06:58:51;7.53;;;3.60;;
7289;SDS011;63176;52.678;13.250;2022-09-09T07:01:18;4.70;;;3.03;;
7289;SDS011;63176;52.678;13.250;2022-09-09T07:03:46;4.83;;;2.50;;
7289;SDS011;63176;52.678;13.250;2022-09-09T07:06:19;4.30;;;3.17;;
7289;SDS011;63176;52.678;13.250;2022-09-09T07:08:50;6.93;;;2.93;;
7289;SDS011;63176;52.678;13.250;2022-09-09T07:11:20;5.40;;;3.00;;
7289;SDS011;63176;52.678;13.250;2022-09-09T07:13:47;3.57;;;2.60;;
7289;SDS011;63176;52.678;13.250;2022-09-09T07:16:15;2.83;;;2.37;;
7289;SDS011;63176;52.678;13.250;2022-09-09T07:18:42;3.50;;;2.50;;
7289;SDS011;63176;52.678;13.250;2022-09-09T07:21:09;2.23;;;2.03;;
7289;SDS011;63176;52.678;13.250;2022-09-09T07:23:37;1.93;;;1.83;;
7289;SDS011;63176;52.678;13.250;2022-09-09T07:26:07;3.40;;;2.23;;
7289;SDS011;63176;52.678;13.250;2022-09-09T07:28:37;3.00;;;1.97;;
7289;SDS011;63176;52.678;13.250;2022-09-09T07:31:03;3.00;;;2.13;;
7289;SDS011;63176;52.678;13.250;2022-09-09T07:33:31;3.33;;;2.30;;
7289;SDS011;63176;52.678;13.250;2022-09-09T07:36:07;2.47;;;1.70;;
7289;SDS011;63176;52.678;13.250;2022-09-09T07:38:43;3.50;;;1.80;;
7289;SDS011;63176;52.678;13.250;2022-09-09T07:41:21;4.93;;;2.57;;
7289;SDS011;63176;52.678;13.250;2022-09-09T07:43:48;4.60;;;2.23;;
7289;SDS011;63176;52.678;13.250;2022-09-09T07:46:15;3.73;;;2.00;;
7289;SDS011;63176;52.678;13.250;2022-09-09T07:48:46;3.27;;;1.87;;
7289;SDS011;63176;52.678;13.250;2022-09-09T07:51:16;1.97;;;1.87;;
7289;SDS011;63176;52.678;13.250;2022-09-09T07:53:45;2.70;;;2.03;;
7289;SDS011;63176;52.678;13.250;2022-09-09T07:56:16;2.67;;;2.33;;
7289;SDS011;63176;52.678;13.250;2022-09-09T07:58:44;3.57;;;2.17;;
7289;SDS011;63176;52.678;13.250;2022-09-09T08:01:13;3.00;;;2.10;;
7289;SDS011;63176;52.678;13.250;2022-09-09T08:03:42;1.93;;;1.70;;
7289;SDS011;63176;52.678;13.250;2022-09-09T08:06:09;1.80;;;1.70;;
7289;SDS011;63176;52.678;13.250;2022-09-09T08:08:36;4.50;;;1.70;;
7289;SDS011;63176;52.678;13.250;2022-09-09T08:11:13;1.70;;;1.60;;
7289;SDS011;63176;52.678;13.250;2022-09-09T08:13:40;2.90;;;1.80;;
7289;SDS011;63176;52.678;13.250;2022-09-09T08:16:16;2.60;;;1.70;;
7289;SDS011;63176;52.678;13.250;2022-09-09T08:18:47;3.73;;;2.37;;
7289;SDS011;63176;52.678;13.250;2022-09-09T08:21:14;3.37;;;1.67;;
7289;SDS011;63176;52.678;13.250;2022-09-09T08:23:46;2.60;;;1.53;;
7289;SDS011;63176;52.678;13.250;2022-09-09T08:26:19;2.37;;;2.07;;
7289;SDS011;63176;52.678;13.250;2022-09-09T08:28:47;1.87;;;1.60;;
7289;SDS011;63176;52.678;13.250;2022-09-09T08:31:19;2.10;;;1.50;;
7289;SDS011;63176;52.678;13.250;2022-09-09T08:33:49;3.27;;;1.50;;
7289;SDS011;63176;52.678;13.250;2022-09-09T08:36:16;3.20;;;1.50;;
7289;SDS011;63176;52.678;13.250;2022-09-09T08:38:43;2.50;;;1.10;;
7289;SDS011;63176;52.678;13.250;2022-09-09T08:41:22;2.83;;;1.50;;
7289;SDS011;63176;52.678;13.250;2022-09-09T08:44:04;3.20;;;1.43;;
7289;SDS011;63176;52.678;13.250;2022-09-09T08:52:15;2.40;;;1.93;;
7289;SDS011;63176;52.678;13.250;2022-09-09T08:54:44;1.37;;;1.27;;
7289;SDS011;63176;52.678;13.250;2022-09-09T08:57:13;3.57;;;1.40;;
7289;SDS011;63176;52.678;13.250;2022-09-09T08:59:43;2.50;;;1.40;;
7289;SDS011;63176;52.678;13.250;2022-09-09T09:02:16;1.93;;;1.00;;
7289;SDS011;63176;52.678;13.250;2022-09-09T09:04:57;1.63;;;1.27;;
7289;SDS011;63176;52.678;13.250;2022-09-09T09:10:20;1.33;;;1.13;;
7289;SDS011;63176;52.678;13.250;2022-09-09T09:12:57;2.10;;;1.30;;
7289;SDS011;63176;52.678;13.250;2022-09-09T09:15:27;2.33;;;1.60;;
7289;SDS011;63176;52.678;13.250;2022-09-09T09:17:59;1.47;;;1.00;;
7289;SDS011;63176;52.678;13.250;2022-09-09T09:21:08;2.80;;;1.87;;
7289;SDS011;63176;52.678;13.250;2022-09-09T09:23:42;1.20;;;1.10;;
7289;SDS011;63176;52.678;13.250;2022-09-09T09:26:34;2.10;;;1.40;;
7289;SDS011;63176;52.678;13.250;2022-09-09T09:29:01;2.57;;;1.30;;
7289;SDS011;63176;52.678;13.250;2022-09-09T09:31:37;2.97;;;1.00;;
7289;SDS011;63176;52.678;13.250;2022-09-09T09:34:03;3.87;;;1.10;;
7289;SDS011;63176;52.678;13.250;2022-09-09T09:36:39;1.13;;;1.00;;
7289;SDS011;63176;52.678;13.250;2022-09-09T09:39:07;1.57;;;1.10;;
7289;SDS011;63176;52.678;13.250;2022-09-09T09:44:05;2.60;;;1.10;;
7289;SDS011;63176;52.678;13.250;2022-09-09T09:46:46;1.20;;;1.00;;
7289;SDS011;63176;52.678;13.250;2022-09-09T09:49:12;2.93;;;1.10;;
7289;SDS011;63176;52.678;13.250;2022-09-09T09:51:38;1.57;;;1.10;;
7289;SDS011;63176;52.678;13.250;2022-09-09T09:54:13;1.50;;;1.30;;
7289;SDS011;63176;52.678;13.250;2022-09-09T09:56:53;1.60;;;0.70;;
7289;SDS011;63176;52.678;13.250;2022-09-09T10:01:45;1.63;;;0.90;;
7289;SDS011;63176;52.678;13.250;2022-09-09T10:06:45;1.30;;;1.20;;
7289;SDS011;63176;52.678;13.250;2022-09-09T10:09:28;6.23;;;1.17;;
7289;SDS011;63176;52.678;13.250;2022-09-09T10:23:19;2.50;;;1.00;;
7289;SDS011;63176;52.678;13.250;2022-09-09T10:26:03;1.60;;;0.90;;
7289;SDS011;63176;52.678;13.250;2022-09-09T10:36:58;1.80;;;1.00;;
7289;SDS011;63176;52.678;13.250;2022-09-09T10:41:57;4.20;;;1.27;;
7289;SDS011;63176;52.678;13.250;2022-09-09T10:44:30;0.80;;;0.60;;
7289;SDS011;63176;52.678;13.250;2022-09-09T10:55:28;1.47;;;0.97;;
7289;SDS011;63176;52.678;13.250;2022-09-09T10:58:04;1.83;;;0.80;;
7289;SDS011;63176;52.678;13.250;2022-09-09T11:03:01;3.33;;;0.83;;
7289;SDS011;63176;52.678;13.250;2022-09-09T11:05:36;1.80;;;0.83;;
7289;SDS011;63176;52.678;13.250;2022-09-09T11:08:31;1.33;;;0.80;;
7289;SDS011;63176;52.678;13.250;2022-09-09T11:16:45;5.83;;;1.00;;
7289;SDS011;63176;52.678;13.250;2022-09-09T11:21:52;3.20;;;1.20;;
7289;SDS011;63176;52.678;13.250;2022-09-09T11:24:23;0.87;;;0.70;;
7289;SDS011;63176;52.678;13.250;2022-09-09T11:27:13;3.30;;;0.70;;
7289;SDS011;63176;52.678;13.250;2022-09-09T11:40:57;1.90;;;0.60;;
7289;SDS011;63176;52.678;13.250;2022-09-09T11:43:37;16.83;;;1.93;;
7289;SDS011;63176;52.678;13.250;2022-09-09T11:46:13;1.00;;;0.70;;
7289;SDS011;63176;52.678;13.250;2022-09-09T11:48:45;1.50;;;0.93;;
7289;SDS011;63176;52.678;13.250;2022-09-09T11:53:53;0.60;;;0.60;;
7289;SDS011;63176;52.678;13.250;2022-09-09T11:56:28;1.00;;;0.70;;
7289;SDS011;63176;52.678;13.250;2022-09-09T12:01:28;0.90;;;0.70;;
7289;SDS011;63176;52.678;13.250;2022-09-09T12:04:10;2.50;;;0.70;;
7289;SDS011;63176;52.678;13.250;2022-09-09T12:09:31;3.03;;;0.70;;
7289;SDS011;63176;52.678;13.250;2022-09-09T12:17:21;1.80;;;0.63;;
7289;SDS011;63176;52.678;13.250;2022-09-09T12:28:48;1.07;;;0.70;;
7289;SDS011;63176;52.678;13.250;2022-09-09T12:34:55;1.87;;;0.60;;
7289;SDS011;63176;52.678;13.250;2022-09-09T12:37:44;0.70;;;0.50;;
7289;SDS011;63176;52.678;13.250;2022-09-09T12:42:53;1.83;;;0.60;;
7289;SDS011;63176;52.678;13.250;2022-09-09T12:45:23;1.23;;;0.60;;
7289;SDS011;63176;52.678;13.250;2022-09-09T12:47:58;1.87;;;0.67;;
7289;SDS011;63176;52.678;13.250;2022-09-09T12:50:30;1.27;;;0.53;;
7289;SDS011;63176;52.678;13.250;2022-09-09T12:53:02;0.83;;;0.50;;
7289;SDS011;63176;52.678;13.250;2022-09-09T12:55:35;0.60;;;0.40;;
7289;SDS011;63176;52.678;13.250;2022-09-09T12:58:02;0.60;;;0.50;;
7289;SDS011;63176;52.678;13.250;2022-09-09T13:00:31;1.90;;;1.20;;
7289;SDS011;63176;52.678;13.250;2022-09-09T13:03:01;1.53;;;0.60;;
7289;SDS011;63176;52.678;13.250;2022-09-09T13:05:39;0.70;;;0.60;;
7289;SDS011;63176;52.678;13.250;2022-09-09T13:08:08;0.73;;;0.50;;
7289;SDS011;63176;52.678;13.250;2022-09-09T13:10:44;1.23;;;0.80;;
7289;SDS011;63176;52.678;13.250;2022-09-09T13:13:15;2.40;;;0.70;;
7289;SDS011;63176;52.678;13.250;2022-09-09T13:15:49;0.93;;;0.70;;
7289;SDS011;63176;52.678;13.250;2022-09-09T13:18:19;1.70;;;0.77;;
7289;SDS011;63176;52.678;13.250;2022-09-09T13:20:48;1.23;;;0.80;;
7289;SDS011;63176;52.678;13.250;2022-09-09T13:23:15;2.53;;;0.83;;
7289;SDS011;63176;52.678;13.250;2022-09-09T13:25:58;1.77;;;0.70;;
7289;SDS011;63176;52.678;13.250;2022-09-09T13:28:26;1.07;;;0.50;;
7289;SDS011;63176;52.678;13.250;2022-09-09T13:30:58;2.53;;;0.97;;
7289;SDS011;63176;52.678;13.250;2022-09-09T13:33:31;1.17;;;0.70;;
7289;SDS011;63176;52.678;13.250;2022-09-09T13:38:38;2.60;;;1.10;;
7289;SDS011;63176;52.678;13.250;2022-09-09T13:41:19;4.03;;;0.70;;
7289;SDS011;63176;52.678;13.250;2022-09-09T13:44:05;1.80;;;0.97;;
7289;SDS011;63176;52.678;13.250;2022-09-09T13:51:40;1.33;;;0.90;;
7289;SDS011;63176;52.678;13.250;2022-09-09T13:54:10;3.40;;;0.80;;
7289;SDS011;63176;52.678;13.250;2022-09-09T13:56:38;1.50;;;0.67;;
7289;SDS011;63176;52.678;13.250;2022-09-09T13:59:05;1.53;;;0.70;;
7289;SDS011;63176;52.678;13.250;2022-09-09T14:01:34;3.80;;;1.10;;
7289;SDS011;63176;52.678;13.250;2022-09-09T14:04:00;4.53;;;0.90;;
7289;SDS011;63176;52.678;13.250;2022-09-09T14:06:26;1.80;;;0.73;;
7289;SDS011;63176;52.678;13.250;2022-09-09T14:08:52;2.10;;;0.70;;
7289;SDS011;63176;52.678;13.250;2022-09-09T14:11:19;2.10;;;0.90;;
7289;SDS011;63176;52.678;13.250;2022-09-09T14:13:46;2.43;;;0.90;;
7289;SDS011;63176;52.678;13.250;2022-09-09T14:16:14;1.90;;;0.97;;
7289;SDS011;63176;52.678;13.250;2022-09-09T14:18:44;2.50;;;0.60;;
7289;SDS011;63176;52.678;13.250;2022-09-09T14:21:10;0.70;;;0.67;;
7289;SDS011;63176;52.678;13.250;2022-09-09T14:23:36;2.03;;;0.63;;
7289;SDS011;63176;52.678;13.250;2022-09-09T14:26:03;1.73;;;0.60;;
7289;SDS011;63176;52.678;13.250;2022-09-09T14:28:30;2.77;;;0.70;;
7289;SDS011;63176;52.678;13.250;2022-09-09T14:30:59;2.43;;;0.83;;
7289;SDS011;63176;52.678;13.250;2022-09-09T14:33:26;1.03;;;0.77;;
7289;SDS011;63176;52.678;13.250;2022-09-09T14:35:57;0.60;;;0.60;;
7289;SDS011;63176;52.678;13.250;2022-09-09T14:38:30;0.90;;;0.80;;
7289;SDS011;63176;52.678;13.250;2022-09-09T14:41:11;1.47;;;0.60;;
7289;SDS011;63176;52.678;13.250;2022-09-09T14:43:42;1.43;;;0.70;;
7289;SDS011;63176;52.678;13.250;2022-09-09T14:46:08;2.87;;;0.67;;
7289;SDS011;63176;52.678;13.250;2022-09-09T14:48:45;2.00;;;0.90;;
7289;SDS011;63176;52.678;13.250;2022-09-09T14:53:41;1.37;;;0.73;;
7289;SDS011;63176;52.678;13.250;2022-09-09T14:56:08;3.50;;;0.60;;
7289;SDS011;63176;52.678;13.250;2022-09-09T14:58:36;1.70;;;0.73;;
7289;SDS011;63176;52.678;13.250;2022-09-09T15:01:13;0.70;;;0.63;;
7289;SDS011;63176;52.678;13.250;2022-09-09T15:03:41;1.67;;;0.70;;
7289;SDS011;63176;52.678;13.250;2022-09-09T15:06:12;3.03;;;0.60;;
7289;SDS011;63176;52.678;13.250;2022-09-09T15:08:40;1.37;;;0.77;;
7289;SDS011;63176;52.678;13.250;2022-09-09T15:11:10;2.47;;;0.60;;
7289;SDS011;63176;52.678;13.250;2022-09-09T15:13:36;2.40;;;0.77;;
7289;SDS011;63176;52.678;13.250;2022-09-09T15:16:07;1.90;;;1.03;;
7289;SDS011;63176;52.678;13.250;2022-09-09T15:18:38;1.40;;;0.60;;
7289;SDS011;63176;52.678;13.250;2022-09-09T15:21:11;1.67;;;0.70;;
7289;SDS011;63176;52.678;13.250;2022-09-09T15:23:39;1.43;;;0.90;;
7289;SDS011;63176;52.678;13.250;2022-09-09T15:26:05;3.40;;;0.80;;
7289;SDS011;63176;52.678;13.250;2022-09-09T15:28:31;2.23;;;0.73;;
7289;SDS011;63176;52.678;13.250;2022-09-09T15:31:06;4.23;;;0.70;;
7289;SDS011;63176;52.678;13.250;2022-09-09T15:33:35;0.93;;;0.60;;
7289;SDS011;63176;52.678;13.250;2022-09-09T15:39:07;2.20;;;0.90;;
7289;SDS011;63176;52.678;13.250;2022-09-09T15:41:37;3.83;;;0.80;;
7289;SDS011;63176;52.678;13.250;2022-09-09T15:44:04;2.00;;;0.93;;
7289;SDS011;63176;52.678;13.250;2022-09-09T15:46:34;1.97;;;1.50;;
7289;SDS011;63176;52.678;13.250;2022-09-09T15:49:12;0.93;;;0.73;;
7289;SDS011;63176;52.678;13.250;2022-09-09T15:51:41;1.43;;;0.90;;
7289;SDS011;63176;52.678;13.250;2022-09-09T15:54:08;4.60;;;0.70;;
7289;SDS011;63176;52.678;13.250;2022-09-09T15:56:37;2.70;;;0.70;;
7289;SDS011;63176;52.678;13.250;2022-09-09T15:59:02;3.67;;;0.80;;
7289;SDS011;63176;52.678;13.250;2022-09-09T16:01:28;4.17;;;0.70;;
7289;SDS011;63176;52.678;13.250;2022-09-09T16:03:56;5.43;;;0.90;;
7289;SDS011;63176;52.678;13.250;2022-09-09T16:06:23;3.60;;;0.70;;
7289;SDS011;63176;52.678;13.250;2022-09-09T16:08:50;2.13;;;0.77;;
7289;SDS011;63176;52.678;13.250;2022-09-09T16:11:18;2.17;;;0.93;;
7289;SDS011;63176;52.678;13.250;2022-09-09T16:13:47;0.90;;;0.60;;
7289;SDS011;63176;52.678;13.250;2022-09-09T16:16:14;2.63;;;0.70;;
7289;SDS011;63176;52.678;13.250;2022-09-09T16:18:45;1.33;;;0.70;;
7289;SDS011;63176;52.678;13.250;2022-09-09T16:21:13;3.97;;;1.13;;
7289;SDS011;63176;52.678;13.250;2022-09-09T16:23:41;0.97;;;0.90;;
7289;SDS011;63176;52.678;13.250;2022-09-09T16:26:07;1.80;;;1.00;;
7289;SDS011;63176;52.678;13.250;2022-09-09T16:28:35;2.07;;;0.90;;
7289;SDS011;63176;52.678;13.250;2022-09-09T16:31:03;1.90;;;0.70;;
7289;SDS011;63176;52.678;13.250;2022-09-09T16:33:35;1.30;;;0.90;;
7289;SDS011;63176;52.678;13.250;2022-09-09T16:36:04;2.57;;;0.77;;
7289;SDS011;63176;52.678;13.250;2022-09-09T16:38:35;0.70;;;0.60;;
7289;SDS011;63176;52.678;13.250;2022-09-09T16:41:02;2.80;;;0.83;;
7289;SDS011;63176;52.678;13.250;2022-09-09T16:43:30;2.40;;;0.80;;
7289;SDS011;63176;52.678;13.250;2022-09-09T16:45:57;1.57;;;1.00;;
7289;SDS011;63176;52.678;13.250;2022-09-09T16:48:25;1.53;;;0.90;;
7289;SDS011;63176;52.678;13.250;2022-09-09T16:51:04;4.73;;;0.93;;
7289;SDS011;63176;52.678;13.250;2022-09-09T16:53:32;4.50;;;0.70;;
7289;SDS011;63176;52.678;13.250;2022-09-09T16:56:04;1.10;;;0.77;;
7289;SDS011;63176;52.678;13.250;2022-09-09T16:58:31;3.13;;;1.00;;
7289;SDS011;63176;52.678;13.250;2022-09-09T17:00:57;2.53;;;0.83;;
7289;SDS011;63176;52.678;13.250;2022-09-09T17:03:24;2.30;;;0.97;;
7289;SDS011;63176;52.678;13.250;2022-09-09T17:05:49;2.93;;;1.20;;
7289;SDS011;63176;52.678;13.250;2022-09-09T17:08:15;1.40;;;1.13;;
7289;SDS011;63176;52.678;13.250;2022-09-09T17:10:41;1.90;;;1.20;;
7289;SDS011;63176;52.678;13.250;2022-09-09T17:13:07;11.00;;;1.20;;
7289;SDS011;63176;52.678;13.250;2022-09-09T17:15:38;1.13;;;1.13;;
7289;SDS011;63176;52.678;13.250;2022-09-09T17:18:07;3.57;;;1.30;;
7289;SDS011;63176;52.678;13.250;2022-09-09T17:20:37;1.10;;;0.83;;
7289;SDS011;63176;52.678;13.250;2022-09-09T17:23:06;3.43;;;1.07;;
7289;SDS011;63176;52.678;13.250;2022-09-09T17:25:33;2.63;;;1.10;;
7289;SDS011;63176;52.678;13.250;2022-09-09T17:27:59;3.83;;;1.13;;
7289;SDS011;63176;52.678;13.250;2022-09-09T17:30:26;2.60;;;1.33;;
7289;SDS011;63176;52.678;13.250;2022-09-09T17:32:52;1.80;;;1.03;;
7289;SDS011;63176;52.678;13.250;2022-09-09T17:35:18;3.53;;;1.37;;
7289;SDS011;63176;52.678;13.250;2022-09-09T17:37:44;4.57;;;1.90;;
7289;SDS011;63176;52.678;13.250;2022-09-09T17:40:10;3.73;;;1.70;;
7289;SDS011;63176;52.678;13.250;2022-09-09T17:42:36;4.07;;;2.20;;
7289;SDS011;63176;52.678;13.250;2022-09-09T17:45:02;3.43;;;1.80;;
7289;SDS011;63176;52.678;13.250;2022-09-09T17:47:28;5.80;;;1.90;;
7289;SDS011;63176;52.678;13.250;2022-09-09T17:49:55;2.80;;;1.70;;
7289;SDS011;63176;52.678;13.250;2022-09-09T17:52:21;2.00;;;1.73;;
7289;SDS011;63176;52.678;13.250;2022-09-09T17:54:48;4.57;;;1.87;;